sensor_id;sensor_type;location;lat;lon;timestamp;P1;durP1;ratioP1;P2;durP2;ratioP2
61308;SDS011;47188;55.644;37.772;2022-09-09T00:01:01;2.50;;;1.48;;
61308;SDS011;47188;55.644;37.772;2022-09-09T00:03:43;1.80;;;1.13;;
61308;SDS011;47188;55.644;37.772;2022-09-09T00:06:26;2.58;;;0.70;;
61308;SDS011;47188;55.644;37.772;2022-09-09T00:14:25;1.58;;;0.95;;
61308;SDS011;47188;55.644;37.772;2022-09-09T00:16:58;2.10;;;1.13;;
61308;SDS011;47188;55.644;37.772;2022-09-09T00:19:37;1.40;;;0.80;;
61308;SDS011;47188;55.644;37.772;2022-09-09T00:24:45;2.78;;;1.23;;
61308;SDS011;47188;55.644;37.772;2022-09-09T00:29:45;3.00;;;1.08;;
61308;SDS011;47188;55.644;37.772;2022-09-09T00:32:19;1.35;;;0.90;;
61308;SDS011;47188;55.644;37.772;2022-09-09T00:34:49;2.58;;;0.90;;
61308;SDS011;47188;55.644;37.772;2022-09-09T00:37:19;3.42;;;1.00;;
61308;SDS011;47188;55.644;37.772;2022-09-09T00:39:46;2.75;;;1.10;;
61308;SDS011;47188;55.644;37.772;2022-09-09T00:42:17;1.42;;;1.00;;
61308;SDS011;47188;55.644;37.772;2022-09-09T00:57:52;2.28;;;1.00;;
61308;SDS011;47188;55.644;37.772;2022-09-09T01:00:20;3.22;;;1.58;;
61308;SDS011;47188;55.644;37.772;2022-09-09T01:02:56;1.42;;;0.88;;
61308;SDS011;47188;55.644;37.772;2022-09-09T01:06:00;1.98;;;0.90;;
61308;SDS011;47188;55.644;37.772;2022-09-09T01:16:50;1.63;;;0.77;;
61308;SDS011;47188;55.644;37.772;2022-09-09T01:20:10;2.78;;;1.00;;
61308;SDS011;47188;55.644;37.772;2022-09-09T01:22:15;2.60;;;1.00;;
61308;SDS011;47188;55.644;37.772;2022-09-09T01:27:17;1.77;;;0.80;;
61308;SDS011;47188;55.644;37.772;2022-09-09T01:29:43;3.90;;;1.00;;
61308;SDS011;47188;55.644;37.772;2022-09-09T01:37:50;2.85;;;1.25;;
61308;SDS011;47188;55.644;37.772;2022-09-09T01:40:17;2.92;;;1.60;;
61308;SDS011;47188;55.644;37.772;2022-09-09T01:42:45;3.53;;;1.65;;
61308;SDS011;47188;55.644;37.772;2022-09-09T01:45:10;2.25;;;1.50;;
61308;SDS011;47188;55.644;37.772;2022-09-09T01:47:36;2.05;;;1.40;;
61308;SDS011;47188;55.644;37.772;2022-09-09T01:50:11;5.13;;;2.05;;
61308;SDS011;47188;55.644;37.772;2022-09-09T01:52:39;3.22;;;1.33;;
61308;SDS011;47188;55.644;37.772;2022-09-09T01:55:08;3.50;;;1.80;;
61308;SDS011;47188;55.644;37.772;2022-09-09T02:00:13;3.47;;;1.90;;
61308;SDS011;47188;55.644;37.772;2022-09-09T02:05:28;2.95;;;1.90;;
61308;SDS011;47188;55.644;37.772;2022-09-09T02:08:16;3.05;;;1.60;;
61308;SDS011;47188;55.644;37.772;2022-09-09T02:14:05;3.57;;;1.20;;
61308;SDS011;47188;55.644;37.772;2022-09-09T02:16:44;3.78;;;1.42;;
61308;SDS011;47188;55.644;37.772;2022-09-09T02:21:56;3.63;;;1.75;;
61308;SDS011;47188;55.644;37.772;2022-09-09T02:24:23;3.72;;;1.45;;
61308;SDS011;47188;55.644;37.772;2022-09-09T02:27:01;3.85;;;1.65;;
61308;SDS011;47188;55.644;37.772;2022-09-09T02:29:30;6.65;;;1.70;;
61308;SDS011;47188;55.644;37.772;2022-09-09T02:31:59;2.78;;;1.67;;
61308;SDS011;47188;55.644;37.772;2022-09-09T02:34:33;3.92;;;1.00;;
61308;SDS011;47188;55.644;37.772;2022-09-09T02:37:02;4.20;;;1.70;;
61308;SDS011;47188;55.644;37.772;2022-09-09T02:39:29;2.33;;;1.23;;
61308;SDS011;47188;55.644;37.772;2022-09-09T02:41:55;2.75;;;1.60;;
61308;SDS011;47188;55.644;37.772;2022-09-09T02:44:28;3.60;;;1.60;;
61308;SDS011;47188;55.644;37.772;2022-09-09T02:47:16;9.77;;;2.00;;
61308;SDS011;47188;55.644;37.772;2022-09-09T02:55:20;6.07;;;1.98;;
61308;SDS011;47188;55.644;37.772;2022-09-09T02:58:07;3.22;;;2.00;;
61308;SDS011;47188;55.644;37.772;2022-09-09T03:00:37;3.25;;;1.80;;
61308;SDS011;47188;55.644;37.772;2022-09-09T03:03:05;3.10;;;2.50;;
61308;SDS011;47188;55.644;37.772;2022-09-09T03:05:33;3.33;;;1.88;;
61308;SDS011;47188;55.644;37.772;2022-09-09T03:07:59;3.75;;;1.95;;
61308;SDS011;47188;55.644;37.772;2022-09-09T03:10:24;3.80;;;1.67;;
61308;SDS011;47188;55.644;37.772;2022-09-09T03:12:50;4.68;;;2.20;;
61308;SDS011;47188;55.644;37.772;2022-09-09T03:15:17;4.78;;;2.05;;
61308;SDS011;47188;55.644;37.772;2022-09-09T03:17:43;4.63;;;2.03;;
61308;SDS011;47188;55.644;37.772;2022-09-09T03:20:09;5.03;;;2.28;;
61308;SDS011;47188;55.644;37.772;2022-09-09T03:22:37;2.55;;;1.80;;
61308;SDS011;47188;55.644;37.772;2022-09-09T03:25:03;3.10;;;1.90;;
61308;SDS011;47188;55.644;37.772;2022-09-09T03:27:29;3.85;;;1.92;;
61308;SDS011;47188;55.644;37.772;2022-09-09T03:29:57;3.33;;;2.20;;
61308;SDS011;47188;55.644;37.772;2022-09-09T03:32:24;3.75;;;2.03;;
61308;SDS011;47188;55.644;37.772;2022-09-09T03:34:52;4.88;;;1.98;;
61308;SDS011;47188;55.644;37.772;2022-09-09T03:37:19;4.95;;;2.65;;
61308;SDS011;47188;55.644;37.772;2022-09-09T03:39:47;6.70;;;2.55;;
61308;SDS011;47188;55.644;37.772;2022-09-09T03:42:15;3.30;;;2.08;;
61308;SDS011;47188;55.644;37.772;2022-09-09T03:44:45;3.63;;;2.10;;
61308;SDS011;47188;55.644;37.772;2022-09-09T03:47:16;2.80;;;2.13;;
61308;SDS011;47188;55.644;37.772;2022-09-09T03:49:47;4.65;;;2.47;;
61308;SDS011;47188;55.644;37.772;2022-09-09T03:52:13;3.92;;;1.98;;
61308;SDS011;47188;55.644;37.772;2022-09-09T03:54:40;5.10;;;1.90;;
61308;SDS011;47188;55.644;37.772;2022-09-09T03:57:08;2.75;;;1.90;;
61308;SDS011;47188;55.644;37.772;2022-09-09T03:59:35;3.72;;;1.90;;
61308;SDS011;47188;55.644;37.772;2022-09-09T04:02:02;5.65;;;2.10;;
61308;SDS011;47188;55.644;37.772;2022-09-09T04:04:28;3.85;;;2.10;;
61308;SDS011;47188;55.644;37.772;2022-09-09T04:06:54;3.63;;;2.00;;
61308;SDS011;47188;55.644;37.772;2022-09-09T04:09:20;6.00;;;2.40;;
61308;SDS011;47188;55.644;37.772;2022-09-09T04:11:47;4.10;;;2.10;;
61308;SDS011;47188;55.644;37.772;2022-09-09T04:14:14;5.50;;;2.05;;
61308;SDS011;47188;55.644;37.772;2022-09-09T04:16:39;3.05;;;1.85;;
61308;SDS011;47188;55.644;37.772;2022-09-09T04:19:08;6.88;;;2.38;;
61308;SDS011;47188;55.644;37.772;2022-09-09T04:21:34;5.20;;;2.33;;
61308;SDS011;47188;55.644;37.772;2022-09-09T04:24:01;3.03;;;2.22;;
61308;SDS011;47188;55.644;37.772;2022-09-09T04:26:27;2.65;;;1.25;;
61308;SDS011;47188;55.644;37.772;2022-09-09T04:28:53;5.88;;;2.15;;
61308;SDS011;47188;55.644;37.772;2022-09-09T04:31:20;3.45;;;2.40;;
61308;SDS011;47188;55.644;37.772;2022-09-09T04:33:49;2.58;;;2.05;;
61308;SDS011;47188;55.644;37.772;2022-09-09T04:36:16;4.20;;;2.20;;
61308;SDS011;47188;55.644;37.772;2022-09-09T04:38:44;6.93;;;1.98;;
61308;SDS011;47188;55.644;37.772;2022-09-09T04:41:10;4.80;;;2.55;;
61308;SDS011;47188;55.644;37.772;2022-09-09T04:43:38;2.85;;;2.10;;
61308;SDS011;47188;55.644;37.772;2022-09-09T04:46:06;4.03;;;2.05;;
61308;SDS011;47188;55.644;37.772;2022-09-09T04:48:32;2.83;;;2.00;;
61308;SDS011;47188;55.644;37.772;2022-09-09T04:53:31;2.90;;;2.08;;
61308;SDS011;47188;55.644;37.772;2022-09-09T04:56:03;14.25;;;6.18;;
61308;SDS011;47188;55.644;37.772;2022-09-09T04:58:55;2.47;;;1.88;;
61308;SDS011;47188;55.644;37.772;2022-09-09T05:01:25;3.58;;;1.98;;
61308;SDS011;47188;55.644;37.772;2022-09-09T05:03:58;8.38;;;2.45;;
61308;SDS011;47188;55.644;37.772;2022-09-09T05:06:24;3.25;;;2.30;;
61308;SDS011;47188;55.644;37.772;2022-09-09T05:08:54;2.90;;;1.80;;
61308;SDS011;47188;55.644;37.772;2022-09-09T05:11:25;3.00;;;2.30;;
61308;SDS011;47188;55.644;37.772;2022-09-09T05:13:56;9.95;;;2.28;;
61308;SDS011;47188;55.644;37.772;2022-09-09T05:16:22;5.00;;;2.00;;
61308;SDS011;47188;55.644;37.772;2022-09-09T05:18:48;8.55;;;2.40;;
61308;SDS011;47188;55.644;37.772;2022-09-09T05:21:16;3.80;;;2.17;;
61308;SDS011;47188;55.644;37.772;2022-09-09T05:23:44;3.88;;;2.42;;
61308;SDS011;47188;55.644;37.772;2022-09-09T05:26:17;6.50;;;2.00;;
61308;SDS011;47188;55.644;37.772;2022-09-09T05:28:47;4.75;;;2.55;;
61308;SDS011;47188;55.644;37.772;2022-09-09T05:31:13;5.00;;;2.25;;
61308;SDS011;47188;55.644;37.772;2022-09-09T05:33:43;5.70;;;2.30;;
61308;SDS011;47188;55.644;37.772;2022-09-09T05:36:16;5.10;;;1.80;;
61308;SDS011;47188;55.644;37.772;2022-09-09T05:38:44;3.35;;;1.67;;
61308;SDS011;47188;55.644;37.772;2022-09-09T05:41:12;1.67;;;1.58;;
61308;SDS011;47188;55.644;37.772;2022-09-09T05:43:41;2.75;;;1.55;;
61308;SDS011;47188;55.644;37.772;2022-09-09T05:46:11;5.75;;;1.80;;
61308;SDS011;47188;55.644;37.772;2022-09-09T05:48:47;2.50;;;1.30;;
61308;SDS011;47188;55.644;37.772;2022-09-09T05:51:22;2.90;;;1.55;;
61308;SDS011;47188;55.644;37.772;2022-09-09T05:53:55;2.85;;;1.70;;
61308;SDS011;47188;55.644;37.772;2022-09-09T05:56:25;4.90;;;1.60;;
61308;SDS011;47188;55.644;37.772;2022-09-09T05:58:54;3.78;;;1.48;;
61308;SDS011;47188;55.644;37.772;2022-09-09T06:01:23;4.43;;;1.70;;
61308;SDS011;47188;55.644;37.772;2022-09-09T06:03:52;1.65;;;1.20;;
61308;SDS011;47188;55.644;37.772;2022-09-09T06:06:23;5.35;;;1.00;;
61308;SDS011;47188;55.644;37.772;2022-09-09T06:08:53;2.53;;;0.93;;
61308;SDS011;47188;55.644;37.772;2022-09-09T06:11:24;3.53;;;1.40;;
61308;SDS011;47188;55.644;37.772;2022-09-09T06:13:51;4.25;;;1.00;;
61308;SDS011;47188;55.644;37.772;2022-09-09T06:16:20;1.70;;;0.70;;
61308;SDS011;47188;55.644;37.772;2022-09-09T06:18:52;5.57;;;0.77;;
61308;SDS011;47188;55.644;37.772;2022-09-09T06:21:20;0.90;;;0.80;;
61308;SDS011;47188;55.644;37.772;2022-09-09T06:23:48;1.83;;;0.50;;
61308;SDS011;47188;55.644;37.772;2022-09-09T06:26:15;1.60;;;0.82;;
61308;SDS011;47188;55.644;37.772;2022-09-09T06:28:43;3.50;;;0.60;;
61308;SDS011;47188;55.644;37.772;2022-09-09T06:31:10;0.80;;;0.50;;
61308;SDS011;47188;55.644;37.772;2022-09-09T06:33:38;2.05;;;0.60;;
61308;SDS011;47188;55.644;37.772;2022-09-09T06:36:12;1.08;;;0.45;;
61308;SDS011;47188;55.644;37.772;2022-09-09T06:38:44;1.93;;;0.40;;
61308;SDS011;47188;55.644;37.772;2022-09-09T06:41:12;1.25;;;0.50;;
61308;SDS011;47188;55.644;37.772;2022-09-09T06:43:40;1.00;;;0.50;;
61308;SDS011;47188;55.644;37.772;2022-09-09T06:48:42;3.03;;;0.50;;
61308;SDS011;47188;55.644;37.772;2022-09-09T06:53:42;1.05;;;0.30;;
61308;SDS011;47188;55.644;37.772;2022-09-09T06:58:37;1.52;;;0.30;;
61308;SDS011;47188;55.644;37.772;2022-09-09T07:01:10;2.85;;;0.20;;
61308;SDS011;47188;55.644;37.772;2022-09-09T07:03:41;0.38;;;0.20;;
61308;SDS011;47188;55.644;37.772;2022-09-09T07:06:14;1.20;;;0.50;;
61308;SDS011;47188;55.644;37.772;2022-09-09T07:08:43;0.80;;;0.47;;
61308;SDS011;47188;55.644;37.772;2022-09-09T07:11:09;0.20;;;0.20;;
61308;SDS011;47188;55.644;37.772;2022-09-09T07:13:36;0.40;;;0.30;;
61308;SDS011;47188;55.644;37.772;2022-09-09T07:16:06;1.45;;;0.50;;
61308;SDS011;47188;55.644;37.772;2022-09-09T07:21:02;0.75;;;0.30;;
61308;SDS011;47188;55.644;37.772;2022-09-09T07:23:29;4.13;;;0.50;;
61308;SDS011;47188;55.644;37.772;2022-09-09T07:25:56;0.70;;;0.30;;
61308;SDS011;47188;55.644;37.772;2022-09-09T07:28:23;0.60;;;0.30;;
61308;SDS011;47188;55.644;37.772;2022-09-09T07:30:56;1.08;;;0.40;;
61308;SDS011;47188;55.644;37.772;2022-09-09T07:33:24;0.70;;;0.35;;
61308;SDS011;47188;55.644;37.772;2022-09-09T07:35:51;2.28;;;0.30;;
61308;SDS011;47188;55.644;37.772;2022-09-09T07:38:18;1.52;;;0.35;;
61308;SDS011;47188;55.644;37.772;2022-09-09T07:40:44;1.27;;;0.22;;
61308;SDS011;47188;55.644;37.772;2022-09-09T07:43:10;2.22;;;0.32;;
61308;SDS011;47188;55.644;37.772;2022-09-09T07:45:36;1.00;;;0.30;;
61308;SDS011;47188;55.644;37.772;2022-09-09T07:48:03;2.42;;;0.45;;
61308;SDS011;47188;55.644;37.772;2022-09-09T07:50:29;1.85;;;0.28;;
61308;SDS011;47188;55.644;37.772;2022-09-09T07:52:56;0.80;;;0.40;;
61308;SDS011;47188;55.644;37.772;2022-09-09T07:55:22;0.30;;;0.20;;
61308;SDS011;47188;55.644;37.772;2022-09-09T07:57:55;1.27;;;0.30;;
61308;SDS011;47188;55.644;37.772;2022-09-09T08:00:22;0.38;;;0.28;;
61308;SDS011;47188;55.644;37.772;2022-09-09T08:02:53;0.50;;;0.30;;
61308;SDS011;47188;55.644;37.772;2022-09-09T08:05:19;0.70;;;0.38;;
61308;SDS011;47188;55.644;37.772;2022-09-09T08:07:46;0.55;;;0.40;;
61308;SDS011;47188;55.644;37.772;2022-09-09T08:10:12;0.77;;;0.40;;
61308;SDS011;47188;55.644;37.772;2022-09-09T08:12:40;1.02;;;0.57;;
61308;SDS011;47188;55.644;37.772;2022-09-09T08:15:06;0.73;;;0.40;;
61308;SDS011;47188;55.644;37.772;2022-09-09T08:17:33;1.08;;;0.40;;
61308;SDS011;47188;55.644;37.772;2022-09-09T08:20:03;0.45;;;0.30;;
61308;SDS011;47188;55.644;37.772;2022-09-09T08:22:30;1.42;;;0.55;;
61308;SDS011;47188;55.644;37.772;2022-09-09T08:24:56;1.05;;;0.40;;
61308;SDS011;47188;55.644;37.772;2022-09-09T08:27:22;1.10;;;0.40;;
61308;SDS011;47188;55.644;37.772;2022-09-09T08:29:49;0.30;;;0.22;;
61308;SDS011;47188;55.644;37.772;2022-09-09T08:32:16;0.95;;;0.35;;
61308;SDS011;47188;55.644;37.772;2022-09-09T08:34:43;0.60;;;0.30;;
61308;SDS011;47188;55.644;37.772;2022-09-09T08:37:14;3.45;;;0.50;;
61308;SDS011;47188;55.644;37.772;2022-09-09T08:39:42;0.90;;;0.60;;
61308;SDS011;47188;55.644;37.772;2022-09-09T08:48:01;1.85;;;0.40;;
61308;SDS011;47188;55.644;37.772;2022-09-09T08:51:00;2.92;;;0.52;;
61308;SDS011;47188;55.644;37.772;2022-09-09T08:53:35;1.63;;;0.80;;
61308;SDS011;47188;55.644;37.772;2022-09-09T08:56:08;0.75;;;0.43;;
61308;SDS011;47188;55.644;37.772;2022-09-09T08:58:49;0.40;;;0.40;;
61308;SDS011;47188;55.644;37.772;2022-09-09T09:07:17;0.82;;;0.40;;
61308;SDS011;47188;55.644;37.772;2022-09-09T09:10:25;0.35;;;0.28;;
61308;SDS011;47188;55.644;37.772;2022-09-09T09:13:01;0.55;;;0.40;;
61308;SDS011;47188;55.644;37.772;2022-09-09T09:15:35;1.02;;;0.40;;
61308;SDS011;47188;55.644;37.772;2022-09-09T09:18:03;0.77;;;0.40;;
61308;SDS011;47188;55.644;37.772;2022-09-09T09:21:12;1.15;;;0.50;;
61308;SDS011;47188;55.644;37.772;2022-09-09T09:23:38;1.50;;;0.50;;
61308;SDS011;47188;55.644;37.772;2022-09-09T09:26:31;1.23;;;0.47;;
61308;SDS011;47188;55.644;37.772;2022-09-09T09:29:01;1.00;;;0.43;;
61308;SDS011;47188;55.644;37.772;2022-09-09T09:31:34;1.48;;;0.68;;
61308;SDS011;47188;55.644;37.772;2022-09-09T09:34:00;1.23;;;0.40;;
61308;SDS011;47188;55.644;37.772;2022-09-09T09:36:39;3.00;;;0.43;;
61308;SDS011;47188;55.644;37.772;2022-09-09T09:39:10;2.25;;;0.50;;
61308;SDS011;47188;55.644;37.772;2022-09-09T09:42:09;2.17;;;0.50;;
61308;SDS011;47188;55.644;37.772;2022-09-09T09:44:38;2.28;;;0.43;;
61308;SDS011;47188;55.644;37.772;2022-09-09T09:49:39;1.25;;;0.60;;
61308;SDS011;47188;55.644;37.772;2022-09-09T09:52:06;2.47;;;0.60;;
61308;SDS011;47188;55.644;37.772;2022-09-09T09:54:37;3.67;;;0.68;;
61308;SDS011;47188;55.644;37.772;2022-09-09T09:57:14;1.35;;;0.60;;
61308;SDS011;47188;55.644;37.772;2022-09-09T09:59:42;2.33;;;0.40;;
61308;SDS011;47188;55.644;37.772;2022-09-09T10:02:22;1.02;;;0.50;;
61308;SDS011;47188;55.644;37.772;2022-09-09T10:05:05;2.58;;;0.50;;
61308;SDS011;47188;55.644;37.772;2022-09-09T10:07:33;1.30;;;0.50;;
61308;SDS011;47188;55.644;37.772;2022-09-09T10:09:59;6.72;;;0.50;;
61308;SDS011;47188;55.644;37.772;2022-09-09T10:23:11;1.75;;;0.60;;
61308;SDS011;47188;55.644;37.772;2022-09-09T10:36:26;2.53;;;0.47;;
61308;SDS011;47188;55.644;37.772;2022-09-09T10:39:03;1.27;;;0.50;;
61308;SDS011;47188;55.644;37.772;2022-09-09T10:41:40;4.57;;;0.60;;
61308;SDS011;47188;55.644;37.772;2022-09-09T10:47:57;4.32;;;0.50;;
61308;SDS011;47188;55.644;37.772;2022-09-09T10:50:40;2.58;;;0.55;;
61308;SDS011;47188;55.644;37.772;2022-09-09T10:55:41;3.13;;;0.50;;
61308;SDS011;47188;55.644;37.772;2022-09-09T10:58:21;1.83;;;0.43;;
61308;SDS011;47188;55.644;37.772;2022-09-09T11:00:52;0.85;;;0.30;;
61308;SDS011;47188;55.644;37.772;2022-09-09T11:03:21;0.68;;;0.32;;
61308;SDS011;47188;55.644;37.772;2022-09-09T11:06:36;2.72;;;0.50;;
61308;SDS011;47188;55.644;37.772;2022-09-09T11:08:40;2.28;;;0.47;;
61308;SDS011;47188;55.644;37.772;2022-09-09T11:11:13;2.53;;;0.50;;
61308;SDS011;47188;55.644;37.772;2022-09-09T11:19:03;1.35;;;0.50;;
61308;SDS011;47188;55.644;37.772;2022-09-09T11:21:37;7.07;;;0.80;;
61308;SDS011;47188;55.644;37.772;2022-09-09T11:24:10;2.70;;;0.80;;
61308;SDS011;47188;55.644;37.772;2022-09-09T11:27:02;1.33;;;0.60;;
61308;SDS011;47188;55.644;37.772;2022-09-09T11:40:43;1.30;;;0.40;;
61308;SDS011;47188;55.644;37.772;2022-09-09T11:45:59;2.15;;;0.30;;
61308;SDS011;47188;55.644;37.772;2022-09-09T11:48:34;3.30;;;0.30;;
61308;SDS011;47188;55.644;37.772;2022-09-09T11:51:06;2.60;;;0.40;;
61308;SDS011;47188;55.644;37.772;2022-09-09T11:53:53;0.77;;;0.45;;
61308;SDS011;47188;55.644;37.772;2022-09-09T11:59:27;2.08;;;0.60;;
61308;SDS011;47188;55.644;37.772;2022-09-09T12:01:57;2.53;;;0.52;;
61308;SDS011;47188;55.644;37.772;2022-09-09T12:09:19;1.00;;;0.38;;
61308;SDS011;47188;55.644;37.772;2022-09-09T12:11:49;0.82;;;0.50;;
61308;SDS011;47188;55.644;37.772;2022-09-09T12:19:42;1.20;;;0.40;;
61308;SDS011;47188;55.644;37.772;2022-09-09T12:25:03;1.13;;;0.32;;
61308;SDS011;47188;55.644;37.772;2022-09-09T12:27:36;1.05;;;0.40;;
61308;SDS011;47188;55.644;37.772;2022-09-09T12:30:08;1.33;;;0.55;;
61308;SDS011;47188;55.644;37.772;2022-09-09T12:32:39;4.22;;;0.60;;
61308;SDS011;47188;55.644;37.772;2022-09-09T12:35:22;3.28;;;0.60;;
61308;SDS011;47188;55.644;37.772;2022-09-09T12:37:56;2.83;;;0.60;;
61308;SDS011;47188;55.644;37.772;2022-09-09T12:40:32;1.70;;;0.63;;
61308;SDS011;47188;55.644;37.772;2022-09-09T12:43:01;2.83;;;0.50;;
61308;SDS011;47188;55.644;37.772;2022-09-09T12:45:31;0.55;;;0.32;;
61308;SDS011;47188;55.644;37.772;2022-09-09T12:48:02;3.13;;;0.43;;
61308;SDS011;47188;55.644;37.772;2022-09-09T12:50:33;0.80;;;0.40;;
61308;SDS011;47188;55.644;37.772;2022-09-09T12:53:10;2.50;;;0.43;;
61308;SDS011;47188;55.644;37.772;2022-09-09T12:55:48;3.45;;;0.50;;
61308;SDS011;47188;55.644;37.772;2022-09-09T12:58:16;3.28;;;0.50;;
61308;SDS011;47188;55.644;37.772;2022-09-09T13:00:48;4.80;;;0.75;;
61308;SDS011;47188;55.644;37.772;2022-09-09T13:03:18;2.05;;;0.85;;
61308;SDS011;47188;55.644;37.772;2022-09-09T13:05:48;1.23;;;0.68;;
61308;SDS011;47188;55.644;37.772;2022-09-09T13:08:15;1.55;;;0.90;;
61308;SDS011;47188;55.644;37.772;2022-09-09T13:16:01;3.28;;;0.50;;
61308;SDS011;47188;55.644;37.772;2022-09-09T13:18:33;2.60;;;0.50;;
61308;SDS011;47188;55.644;37.772;2022-09-09T13:21:00;1.85;;;0.70;;
61308;SDS011;47188;55.644;37.772;2022-09-09T13:23:27;2.80;;;0.85;;
61308;SDS011;47188;55.644;37.772;2022-09-09T13:25:58;2.60;;;0.93;;
61308;SDS011;47188;55.644;37.772;2022-09-09T13:28:27;4.05;;;0.63;;
61308;SDS011;47188;55.644;37.772;2022-09-09T13:31:04;2.78;;;0.50;;
61308;SDS011;47188;55.644;37.772;2022-09-09T13:33:33;1.65;;;0.70;;
61308;SDS011;47188;55.644;37.772;2022-09-09T13:36:09;5.90;;;0.60;;
61308;SDS011;47188;55.644;37.772;2022-09-09T13:38:36;3.45;;;0.60;;
61308;SDS011;47188;55.644;37.772;2022-09-09T13:41:18;2.33;;;0.70;;
61308;SDS011;47188;55.644;37.772;2022-09-09T13:43:47;2.33;;;0.70;;
61308;SDS011;47188;55.644;37.772;2022-09-09T13:51:43;3.97;;;1.38;;
61308;SDS011;47188;55.644;37.772;2022-09-09T13:54:12;2.55;;;1.10;;
61308;SDS011;47188;55.644;37.772;2022-09-09T13:56:40;1.25;;;0.95;;
61308;SDS011;47188;55.644;37.772;2022-09-09T13:59:40;1.73;;;0.82;;
61308;SDS011;47188;55.644;37.772;2022-09-09T14:01:59;3.42;;;1.20;;
61308;SDS011;47188;55.644;37.772;2022-09-09T14:04:27;5.68;;;1.17;;
61308;SDS011;47188;55.644;37.772;2022-09-09T14:06:52;5.60;;;1.10;;
61308;SDS011;47188;55.644;37.772;2022-09-09T14:09:18;4.80;;;0.90;;
61308;SDS011;47188;55.644;37.772;2022-09-09T14:11:44;3.47;;;1.00;;
61308;SDS011;47188;55.644;37.772;2022-09-09T14:14:11;2.58;;;0.85;;
61308;SDS011;47188;55.644;37.772;2022-09-09T14:16:37;6.45;;;1.00;;
61308;SDS011;47188;55.644;37.772;2022-09-09T14:19:03;3.05;;;1.20;;
61308;SDS011;47188;55.644;37.772;2022-09-09T14:21:29;5.68;;;1.25;;
61308;SDS011;47188;55.644;37.772;2022-09-09T14:23:55;4.85;;;0.80;;
61308;SDS011;47188;55.644;37.772;2022-09-09T14:26:23;2.53;;;0.80;;
61308;SDS011;47188;55.644;37.772;2022-09-09T14:28:49;2.25;;;0.82;;
61308;SDS011;47188;55.644;37.772;2022-09-09T14:31:15;4.38;;;1.13;;
61308;SDS011;47188;55.644;37.772;2022-09-09T14:33:43;3.92;;;1.08;;
61308;SDS011;47188;55.644;37.772;2022-09-09T14:36:09;5.57;;;1.10;;
61308;SDS011;47188;55.644;37.772;2022-09-09T14:38:36;1.85;;;0.93;;
61308;SDS011;47188;55.644;37.772;2022-09-09T14:41:08;3.25;;;0.70;;
61308;SDS011;47188;55.644;37.772;2022-09-09T14:43:37;3.97;;;1.08;;
61308;SDS011;47188;55.644;37.772;2022-09-09T14:46:07;0.95;;;0.60;;
61308;SDS011;47188;55.644;37.772;2022-09-09T14:48:35;2.65;;;0.80;;
61308;SDS011;47188;55.644;37.772;2022-09-09T14:53:38;4.80;;;0.90;;
61308;SDS011;47188;55.644;37.772;2022-09-09T14:56:09;3.60;;;1.02;;
61308;SDS011;47188;55.644;37.772;2022-09-09T14:58:36;5.13;;;1.35;;
61308;SDS011;47188;55.644;37.772;2022-09-09T15:01:07;2.70;;;0.80;;
61308;SDS011;47188;55.644;37.772;2022-09-09T15:03:37;2.15;;;1.00;;
61308;SDS011;47188;55.644;37.772;2022-09-09T15:06:11;9.45;;;1.13;;
61308;SDS011;47188;55.644;37.772;2022-09-09T15:08:38;3.25;;;1.00;;
61308;SDS011;47188;55.644;37.772;2022-09-09T15:11:06;2.15;;;0.93;;
61308;SDS011;47188;55.644;37.772;2022-09-09T15:13:36;3.90;;;1.13;;
61308;SDS011;47188;55.644;37.772;2022-09-09T15:16:07;4.53;;;1.35;;
61308;SDS011;47188;55.644;37.772;2022-09-09T15:18:34;2.22;;;1.08;;
61308;SDS011;47188;55.644;37.772;2022-09-09T15:21:04;2.20;;;0.90;;
61308;SDS011;47188;55.644;37.772;2022-09-09T15:23:31;6.05;;;1.20;;
61308;SDS011;47188;55.644;37.772;2022-09-09T15:25:58;12.23;;;1.77;;
61308;SDS011;47188;55.644;37.772;2022-09-09T15:28:24;6.55;;;1.70;;
61308;SDS011;47188;55.644;37.772;2022-09-09T15:30:50;6.15;;;2.53;;
61308;SDS011;47188;55.644;37.772;2022-09-09T15:33:20;4.43;;;1.35;;
61308;SDS011;47188;55.644;37.772;2022-09-09T15:35:47;4.05;;;1.63;;
61308;SDS011;47188;55.644;37.772;2022-09-09T15:38:14;5.55;;;1.33;;
61308;SDS011;47188;55.644;37.772;2022-09-09T15:40:40;4.40;;;1.33;;
61308;SDS011;47188;55.644;37.772;2022-09-09T15:43:06;5.57;;;1.52;;
61308;SDS011;47188;55.644;37.772;2022-09-09T15:45:32;2.53;;;1.33;;
61308;SDS011;47188;55.644;37.772;2022-09-09T15:48:02;4.70;;;1.77;;
61308;SDS011;47188;55.644;37.772;2022-09-09T15:50:28;3.33;;;1.45;;
61308;SDS011;47188;55.644;37.772;2022-09-09T15:52:56;2.63;;;1.20;;
61308;SDS011;47188;55.644;37.772;2022-09-09T15:55:22;9.48;;;5.60;;
61308;SDS011;47188;55.644;37.772;2022-09-09T15:57:51;5.57;;;1.45;;
61308;SDS011;47188;55.644;37.772;2022-09-09T16:00:20;6.28;;;1.60;;
61308;SDS011;47188;55.644;37.772;2022-09-09T16:02:46;3.50;;;1.52;;
61308;SDS011;47188;55.644;37.772;2022-09-09T16:05:12;1.90;;;0.95;;
61308;SDS011;47188;55.644;37.772;2022-09-09T16:07:38;5.35;;;1.63;;
61308;SDS011;47188;55.644;37.772;2022-09-09T16:10:04;3.80;;;1.50;;
61308;SDS011;47188;55.644;37.772;2022-09-09T16:12:31;4.25;;;1.60;;
61308;SDS011;47188;55.644;37.772;2022-09-09T16:14:57;2.72;;;1.50;;
61308;SDS011;47188;55.644;37.772;2022-09-09T16:17:24;6.00;;;1.52;;
61308;SDS011;47188;55.644;37.772;2022-09-09T16:19:50;6.00;;;1.70;;
61308;SDS011;47188;55.644;37.772;2022-09-09T16:22:16;6.05;;;1.40;;
61308;SDS011;47188;55.644;37.772;2022-09-09T16:24:43;10.75;;;1.75;;
61308;SDS011;47188;55.644;37.772;2022-09-09T16:27:10;4.82;;;1.77;;
61308;SDS011;47188;55.644;37.772;2022-09-09T16:29:36;5.15;;;1.45;;
61308;SDS011;47188;55.644;37.772;2022-09-09T16:32:02;5.78;;;1.65;;
61308;SDS011;47188;55.644;37.772;2022-09-09T16:34:29;5.65;;;1.30;;
61308;SDS011;47188;55.644;37.772;2022-09-09T16:36:54;5.32;;;1.88;;
61308;SDS011;47188;55.644;37.772;2022-09-09T16:39:21;5.00;;;1.95;;
61308;SDS011;47188;55.644;37.772;2022-09-09T16:41:47;13.35;;;2.38;;
61308;SDS011;47188;55.644;37.772;2022-09-09T16:44:15;6.22;;;2.03;;
61308;SDS011;47188;55.644;37.772;2022-09-09T16:46:44;6.90;;;2.03;;
61308;SDS011;47188;55.644;37.772;2022-09-09T16:49:14;9.65;;;1.90;;
61308;SDS011;47188;55.644;37.772;2022-09-09T16:51:47;3.60;;;1.65;;
61308;SDS011;47188;55.644;37.772;2022-09-09T16:54:15;6.88;;;2.03;;
61308;SDS011;47188;55.644;37.772;2022-09-09T16:56:43;10.75;;;2.15;;
61308;SDS011;47188;55.644;37.772;2022-09-09T16:59:11;5.00;;;1.98;;
61308;SDS011;47188;55.644;37.772;2022-09-09T17:01:39;4.82;;;1.85;;
61308;SDS011;47188;55.644;37.772;2022-09-09T17:04:07;8.23;;;2.25;;
61308;SDS011;47188;55.644;37.772;2022-09-09T17:06:35;6.82;;;2.40;;
61308;SDS011;47188;55.644;37.772;2022-09-09T17:09:05;7.25;;;2.00;;
61308;SDS011;47188;55.644;37.772;2022-09-09T17:11:35;7.43;;;2.10;;
61308;SDS011;47188;55.644;37.772;2022-09-09T17:14:02;11.77;;;2.65;;
61308;SDS011;47188;55.644;37.772;2022-09-09T17:16:30;5.28;;;2.17;;
61308;SDS011;47188;55.644;37.772;2022-09-09T17:18:59;5.13;;;1.80;;
61308;SDS011;47188;55.644;37.772;2022-09-09T17:21:27;5.72;;;2.65;;
61308;SDS011;47188;55.644;37.772;2022-09-09T17:23:54;7.60;;;2.50;;
61308;SDS011;47188;55.644;37.772;2022-09-09T17:26:21;9.27;;;2.63;;
61308;SDS011;47188;55.644;37.772;2022-09-09T17:28:48;5.22;;;2.65;;
61308;SDS011;47188;55.644;37.772;2022-09-09T17:31:15;11.82;;;4.00;;